Time;durP1;ratioP1;P1;durP2;ratioP2;P2;SDS_P1;SDS_P2;PMS_P1;PMS_P2;Temp;Humidity;BMP_temperature;BMP_pressure;BME280_temperature;BME280_humidity;BME280_pressure;Samples;Min_cycle;Max_cycle;Signal;HPM_P1;HPM_P2
2023/05/10 00:02:15;;;;;;;5.22;3.90;;;;;;;15.34;70.12;100790.63;5052759;28;20072;-61
2023/05/10 00:04:43;;;;;;;5.13;3.70;;;;;;;15.34;70.26;100801.44;5059557;28;20041;-61
2023/05/10 00:07:11;;;;;;;4.80;3.53;;;;;;;15.32;70.19;100800.88;5050655;28;20056;-61
2023/05/10 00:09:39;;;;;;;6.53;3.95;;;;;;;15.33;70.32;100797.09;5055096;28;20168;-63
2023/05/10 00:12:07;;;;;;;5.40;4.05;;;;;;;15.34;70.36;100797.94;5051515;28;20080;-62
2023/05/10 00:14:35;;;;;;;5.40;4.25;;;;;;;15.32;70.28;100797.38;5048168;28;20065;-62
2023/05/10 00:17:05;;;;;;;6.53;4.65;;;;;;;15.32;70.41;100791.94;5050211;28;20061;-62
2023/05/10 00:19:32;;;;;;;7.57;4.97;;;;;;;15.30;70.36;100792.19;5047697;28;20044;-62
2023/05/10 00:22:01;;;;;;;6.72;4.25;;;;;;;15.30;70.27;100795.72;5049969;28;20053;-62
2023/05/10 00:24:29;;;;;;;7.18;5.53;;;;;;;15.28;70.35;100789.75;5060148;28;20387;-62
2023/05/10 00:26:57;;;;;;;7.63;5.32;;;;;;;15.29;70.28;100798.69;5058422;28;20042;-62
2023/05/10 00:29:25;;;;;;;6.80;5.43;;;;;;;15.29;70.27;100799.50;5054291;28;20045;-61
2023/05/10 00:31:52;;;;;;;7.43;5.60;;;;;;;15.28;70.32;100799.75;5055077;28;20172;-62
2023/05/10 00:34:22;;;;;;;7.00;5.28;;;;;;;15.27;70.35;100798.94;5057661;28;20072;-62
2023/05/10 00:36:50;;;;;;;6.47;5.32;;;;;;;15.26;70.49;100791.88;5059498;28;20055;-62
2023/05/10 00:39:17;;;;;;;7.63;5.95;;;;;;;15.26;70.38;100797.31;5062209;28;20188;-62
2023/05/10 00:41:45;;;;;;;9.13;6.25;;;;;;;15.27;70.50;100792.72;5058435;28;20041;-59
2023/05/10 00:44:13;;;;;;;9.23;6.85;;;;;;;15.27;70.38;100795.41;5060721;28;20091;-61
2023/05/10 00:46:41;;;;;;;10.55;7.05;;;;;;;15.26;70.45;100789.19;5056659;28;20108;-61
2023/05/10 00:49:09;;;;;;;11.95;7.03;;;;;;;15.26;70.27;100789.19;5060126;28;20107;-62
2023/05/10 00:51:39;;;;;;;9.50;7.32;;;;;;;15.27;70.35;100792.72;5057574;28;20364;-63
2023/05/10 00:54:06;;;;;;;11.30;6.95;;;;;;;15.25;70.45;100784.84;5059392;28;20095;-62
2023/05/10 00:56:35;;;;;;;8.68;7.32;;;;;;;15.25;70.38;100790.25;5056994;28;20041;-63
2023/05/10 00:59:03;;;;;;;8.68;7.13;;;;;;;15.26;70.43;100786.47;5058204;28;20104;-62
2023/05/10 01:01:31;;;;;;;9.68;7.80;;;;;;;15.25;70.46;100789.44;5058445;28;20435;-64
2023/05/10 01:04:00;;;;;;;9.45;7.25;;;;;;;15.25;70.38;100789.44;5059278;28;20041;-60
2023/05/10 01:06:28;;;;;;;9.82;7.57;;;;;;;15.25;70.40;100790.25;5059377;28;20123;-62
2023/05/10 01:08:57;;;;;;;12.82;7.85;;;;;;;15.23;70.74;100783.47;5056154;28;20049;-62
2023/05/10 01:11:25;;;;;;;12.38;8.25;;;;;;;15.23;70.40;100789.69;5059919;28;20049;-62
2023/05/10 01:13:57;;;;;;;12.88;8.63;;;;;;;15.24;70.43;100787.81;5054434;28;20061;-62
2023/05/10 01:16:27;;;;;;;10.50;8.05;;;;;;;15.24;70.40;100790.50;5054898;28;20081;-63
2023/05/10 01:18:55;;;;;;;11.70;9.25;;;;;;;15.23;70.48;100786.97;5057102;28;20045;-62
2023/05/10 01:21:34;;;;;;;12.80;9.13;;;;;;;15.24;70.41;100787.81;5058297;28;20084;-63
2023/05/10 01:24:16;;;;;;;15.25;9.27;;;;;;;15.22;70.61;100781.81;5047446;28;20056;-63
2023/05/10 01:27:12;;;;;;;13.70;10.00;;;;;;;15.21;70.61;100778.28;5053902;28;20430;-61
2023/05/10 01:30:12;;;;;;;13.80;10.57;;;;;;;15.21;70.68;100786.41;5045063;28;20492;-61
2023/05/10 01:32:53;;;;;;;13.35;10.00;;;;;;;15.21;70.68;100786.41;5049098;28;20053;-62
2023/05/10 01:35:27;;;;;;;16.60;12.02;;;;;;;15.20;70.65;100784.78;5053067;28;20132;-54
2023/05/10 01:38:03;;;;;;;14.52;10.65;;;;;;;15.20;70.62;100781.25;5052427;28;20049;-62
2023/05/10 01:40:37;;;;;;;14.50;11.10;;;;;;;15.19;70.59;100775.03;5056633;28;20064;-62
2023/05/10 01:43:09;;;;;;;18.85;12.00;;;;;;;15.18;70.79;100786.94;5055594;28;20109;-62
2023/05/10 01:45:44;;;;;;;17.38;10.70;;;;;;;15.17;70.49;100776.34;5056928;28;20041;-62
2023/05/10 01:48:15;;;;;;;14.95;10.75;;;;;;;15.17;70.59;100784.47;5051245;28;20105;-63
2023/05/10 01:50:47;;;;;;;14.82;10.60;;;;;;;15.16;70.57;100778.25;5060619;28;20063;-62
2023/05/10 01:53:19;;;;;;;15.15;11.57;;;;;;;15.15;70.72;100778.50;5055431;28;20045;-62
2023/05/10 01:55:50;;;;;;;15.38;11.55;;;;;;;15.16;70.52;100788.25;5059601;28;20052;-62
2023/05/10 01:58:21;;;;;;;14.68;11.25;;;;;;;15.07;70.70;100773.53;5057425;28;20224;-63
2023/05/10 02:00:51;;;;;;;16.85;11.65;;;;;;;15.15;70.69;100783.91;5057583;28;20136;-61
2023/05/10 02:03:24;;;;;;;14.43;11.25;;;;;;;15.14;70.65;100782.28;5056519;28;20040;-63
2023/05/10 02:05:55;;;;;;;14.80;11.85;;;;;;;15.12;70.64;100790.66;5048566;28;20049;-62
2023/05/10 02:08:24;;;;;;;16.65;12.55;;;;;;;15.14;70.98;100790.41;5059054;28;20068;-63
2023/05/10 02:10:55;;;;;;;16.63;12.00;;;;;;;15.12;70.75;100795.25;5059813;28;20049;-63
2023/05/10 02:13:25;;;;;;;16.83;12.43;;;;;;;15.12;70.72;100795.25;5055074;28;20308;-62
2023/05/10 02:15:55;;;;;;;18.02;12.93;;;;;;;15.11;70.63;100793.59;5057113;28;20585;-62
2023/05/10 02:18:26;;;;;;;16.58;12.63;;;;;;;15.03;70.78;100788.63;5054153;28;20109;-62
2023/05/10 02:20:56;;;;;;;17.42;12.15;;;;;;;15.09;70.85;100810.09;5057064;28;20046;-63
2023/05/10 02:23:25;;;;;;;17.17;13.57;;;;;;;15.09;71.09;100812.00;5056837;28;20077;-62
2023/05/10 02:25:54;;;;;;;29.52;18.38;;;;;;;15.09;70.95;100814.69;5054023;28;20076;-62
2023/05/10 02:28:24;;;;;;;23.00;16.88;;;;;;;15.06;71.17;100813.31;5050285;28;20072;-63
2023/05/10 02:30:53;;;;;;;22.33;16.52;;;;;;;15.06;70.85;100809.78;5058669;28;20121;-62
2023/05/10 02:33:22;;;;;;;25.02;17.05;;;;;;;15.07;70.82;100817.66;5051693;28;20053;-62
2023/05/10 02:35:53;;;;;;;23.88;17.13;;;;;;;15.07;71.00;100814.13;5056212;28;20116;-62
2023/05/10 02:38:23;;;;;;;24.70;16.85;;;;;;;15.06;70.71;100809.78;5057282;28;20049;-64
2023/05/10 02:40:52;;;;;;;28.27;18.02;;;;;;;15.02;70.94;100812.19;5056512;28;20045;-62
2023/05/10 02:43:22;;;;;;;21.92;16.55;;;;;;;15.07;70.77;100816.84;5058675;28;20052;-63
2023/05/10 02:45:50;;;;;;;24.60;17.00;;;;;;;15.07;70.84;100811.41;5055922;28;20065;-62
2023/05/10 02:48:18;;;;;;;25.40;17.05;;;;;;;15.06;70.96;100816.03;5059804;28;20061;-63
2023/05/10 02:50:51;;;;;;;21.38;15.82;;;;;;;15.06;70.75;100820.63;5057914;28;20040;-61
2023/05/10 02:53:24;;;;;;;26.60;18.92;;;;;;;15.04;70.92;100820.88;5057799;28;20045;-63
2023/05/10 02:55:56;;;;;;;20.38;15.25;;;;;;;15.04;70.60;100817.34;5059476;28;20098;-62
2023/05/10 02:58:25;;;;;;;25.30;17.08;;;;;;;15.04;70.69;100825.47;5058195;28;20049;-63
2023/05/10 03:00:53;;;;;;;20.85;15.77;;;;;;;14.97;70.70;100820.22;5056608;28;20059;-63
2023/05/10 03:03:21;;;;;;;21.52;15.30;;;;;;;15.03;70.94;100826.53;5053585;28;20313;-63
2023/05/10 03:05:48;;;;;;;23.60;17.52;;;;;;;15.03;70.80;100821.13;5056579;28;20049;-63
2023/05/10 03:08:17;;;;;;;21.50;16.10;;;;;;;15.03;70.94;100815.69;5057096;28;20069;-63
2023/05/10 03:11:00;;;;;;;21.60;16.45;;;;;;;15.00;70.72;100814.31;5054963;28;20037;-61
2023/05/10 03:13:35;;;;;;;21.15;16.05;;;;;;;15.01;71.01;100820.56;5059121;28;20037;-62
2023/05/10 03:16:09;;;;;;;23.33;17.42;;;;;;;15.00;71.48;100810.78;5056443;28;20068;-62
2023/05/10 03:18:43;;;;;;;22.40;16.23;;;;;;;15.01;71.14;100820.56;5055271;28;20084;-63
2023/05/10 03:21:15;;;;;;;23.73;17.27;;;;;;;14.99;71.09;100823.50;5055338;28;20049;-57
2023/05/10 03:23:48;;;;;;;21.70;16.60;;;;;;;14.98;71.15;100828.09;5053797;28;20045;-63
2023/05/10 03:26:23;;;;;;;25.25;16.73;;;;;;;14.97;71.16;100820.22;5052796;28;20072;-62
2023/05/10 03:28:52;;;;;;;24.35;17.10;;;;;;;14.95;71.32;100828.59;5050047;28;20045;-61
2023/05/10 03:31:21;;;;;;;21.55;15.00;;;;;;;14.96;70.93;100832.94;5055377;28;20076;-60
2023/05/10 03:33:49;;;;;;;22.13;15.85;;;;;;;14.95;71.26;100833.19;5054683;28;20300;-63
2023/05/10 03:36:17;;;;;;;23.23;16.88;;;;;;;14.94;71.33;100834.25;5053455;28;20052;-61
2023/05/10 03:38:45;;;;;;;20.33;14.77;;;;;;;14.93;71.20;100830.75;5057147;28;20127;-63
2023/05/10 03:41:13;;;;;;;22.10;15.52;;;;;;;14.94;71.09;100839.69;5056134;28;20060;-62
2023/05/10 03:43:42;;;;;;;22.95;14.90;;;;;;;14.93;70.88;100841.56;5055311;28;20041;-64
2023/05/10 03:46:10;;;;;;;23.35;14.82;;;;;;;14.92;71.01;100842.63;5056949;28;20437;-61
2023/05/10 03:48:38;;;;;;;23.17;16.15;;;;;;;14.92;71.20;100833.69;5059187;28;20200;-63
2023/05/10 03:51:06;;;;;;;24.45;15.18;;;;;;;14.91;70.86;100841.00;5064161;28;20076;-62
2023/05/10 03:53:34;;;;;;;24.45;16.50;;;;;;;14.90;71.09;100839.38;5058335;28;20067;-62
2023/05/10 03:56:02;;;;;;;22.05;15.90;;;;;;;14.89;71.41;100836.91;5054343;28;20044;-62
2023/05/10 03:58:30;;;;;;;20.20;15.05;;;;;;;14.89;71.33;100845.03;5057703;28;20056;-62
2023/05/10 04:00:59;;;;;;;19.50;14.60;;;;;;;14.87;71.19;100850.69;5056301;28;20466;-61
2023/05/10 04:03:28;;;;;;;24.45;16.38;;;;;;;14.88;71.29;100840.69;5062789;28;20049;-62
2023/05/10 04:06:00;;;;;;;27.23;16.88;;;;;;;14.88;71.42;100854.22;5060934;28;20044;-62
2023/05/10 04:08:29;;;;;;;23.75;15.30;;;;;;;14.87;71.27;100849.88;5055540;28;20077;-62
2023/05/10 04:11:06;;;;;;;22.73;16.05;;;;;;;14.87;71.34;100852.56;5052680;28;20641;-61
2023/05/10 04:13:34;;;;;;;24.85;16.38;;;;;;;14.86;71.15;100853.63;5056097;28;20048;-62
2023/05/10 04:16:04;;;;;;;26.58;18.17;;;;;;;14.85;71.56;100852.00;5054549;28;20041;-62
2023/05/10 04:18:32;;;;;;;34.58;22.67;;;;;;;14.82;71.49;100855.22;5051876;28;20071;-61
2023/05/10 04:21:00;;;;;;;34.42;22.45;;;;;;;14.82;71.57;100852.50;5046871;28;20053;-62
2023/05/10 04:23:28;;;;;;;39.50;24.67;;;;;;;14.82;71.57;100847.91;5049232;28;20056;-62
2023/05/10 04:26:00;;;;;;;39.53;23.15;;;;;;;14.81;71.29;100848.16;5055284;28;20053;-61
2023/05/10 04:28:28;;;;;;;36.90;21.90;;;;;;;14.83;71.18;100851.44;5051299;28;20053;-62
2023/05/10 04:31:02;;;;;;;34.45;23.00;;;;;;;14.81;71.13;100853.56;5051926;28;20049;-61
2023/05/10 04:33:31;;;;;;;37.72;24.45;;;;;;;14.82;71.50;100856.03;5058554;28;20037;-62
2023/05/10 04:35:59;;;;;;;44.33;23.80;;;;;;;14.81;71.10;100858.97;5048831;28;20123;-58
2023/05/10 04:38:27;;;;;;;42.17;25.30;;;;;;;14.79;71.31;100847.59;5057460;28;20136;-62
2023/05/10 04:40:55;;;;;;;42.15;25.27;;;;;;;14.73;71.11;100846.69;5050489;28;20052;-61
2023/05/10 04:43:23;;;;;;;41.42;25.27;;;;;;;14.79;71.08;100845.69;5049667;28;20590;-61
2023/05/10 04:45:51;;;;;;;46.15;28.13;;;;;;;14.79;71.38;100853.00;5050169;28;20064;-61
2023/05/10 04:48:19;;;;;;;38.92;25.83;;;;;;;14.78;71.31;100860.31;5051723;28;20104;-62
2023/05/10 04:50:48;;;;;;;38.83;24.65;;;;;;;14.78;71.15;100860.31;5058026;28;20083;-62
2023/05/10 04:53:16;;;;;;;39.30;24.55;;;;;;;14.78;70.91;100860.31;5059532;28;20093;-61
2023/05/10 04:55:44;;;;;;;41.28;25.10;;;;;;;14.79;71.21;100866.53;5055706;28;20486;-61
2023/05/10 04:58:12;;;;;;;37.38;23.90;;;;;;;14.79;70.91;100869.22;5050216;28;20049;-60
2023/05/10 05:00:40;;;;;;;36.22;23.30;;;;;;;14.78;70.85;100873.81;5056246;28;20081;-63
2023/05/10 05:03:08;;;;;;;35.67;22.67;;;;;;;14.77;70.87;100876.78;5058110;28;20079;-64
2023/05/10 05:05:36;;;;;;;37.70;24.25;;;;;;;14.76;70.56;100872.44;5050204;28;20095;-63
2023/05/10 05:08:06;;;;;;;37.00;23.52;;;;;;;14.75;70.91;100871.63;5056099;28;20048;-61
2023/05/10 05:10:34;;;;;;;33.38;21.90;;;;;;;14.75;70.75;100865.38;5051041;28;20099;-61
2023/05/10 05:13:02;;;;;;;33.80;21.13;;;;;;;14.75;70.86;100865.38;5043336;28;20422;-61
2023/05/10 05:15:30;;;;;;;34.10;21.17;;;;;;;14.75;70.65;100878.91;5047551;28;20144;-59
2023/05/10 05:17:58;;;;;;;32.50;21.42;;;;;;;14.75;70.45;100870.81;5048667;28;20081;-67
2023/05/10 05:20:26;;;;;;;35.63;21.55;;;;;;;14.74;70.70;100879.97;5045144;28;20061;-62
2023/05/10 05:22:54;;;;;;;29.55;20.02;;;;;;;14.73;70.87;100883.75;5048728;28;20113;-60
2023/05/10 05:25:23;;;;;;;31.58;20.42;;;;;;;14.72;70.53;100882.94;5050067;28;20049;-67
2023/05/10 05:27:51;;;;;;;31.85;19.95;;;;;;;14.72;70.30;100884.81;5045859;28;20052;-63
2023/05/10 05:30:19;;;;;;;30.27;19.15;;;;;;;14.71;70.53;100885.91;5054538;28;20068;-57
2023/05/10 05:32:47;;;;;;;28.00;19.23;;;;;;;14.73;70.55;100889.16;5045843;28;20077;-61
2023/05/10 05:35:15;;;;;;;25.95;18.17;;;;;;;14.71;70.78;100886.72;4697217;28;10000471;-59
2023/05/10 05:37:44;;;;;;;34.03;18.88;;;;;;;14.72;70.57;100891.06;5049756;28;20060;-61
2023/05/10 05:40:13;;;;;;;26.98;18.05;;;;;;;14.72;70.33;100892.94;5059608;28;20044;-57
2023/05/10 05:42:43;;;;;;;24.48;17.10;;;;;;;14.72;70.54;100898.34;5054330;28;20096;-69
2023/05/10 05:45:12;;;;;;;29.90;18.60;;;;;;;14.70;70.76;100901.31;5051255;28;20060;-61
2023/05/10 05:47:41;;;;;;;31.48;18.23;;;;;;;14.54;70.88;100891.31;5046914;28;20041;-61
2023/05/10 05:50:10;;;;;;;28.92;17.92;;;;;;;14.62;70.73;100905.25;5051743;28;20088;-63
2023/05/10 05:52:38;;;;;;;24.85;16.80;;;;;;;14.63;70.94;100908.78;5055628;28;20049;-61
2023/05/10 05:55:06;;;;;;;25.60;16.75;;;;;;;14.61;70.98;100900.91;5055274;28;20077;-62
2023/05/10 05:57:34;;;;;;;23.85;15.93;;;;;;;14.60;70.63;100907.38;5050441;28;20097;-65
2023/05/10 06:00:03;;;;;;;23.23;15.75;;;;;;;14.63;70.74;100914.19;5058529;28;20056;-62
2023/05/10 06:02:31;;;;;;;24.90;14.88;;;;;;;14.61;70.63;100914.44;5053528;28;20087;-63
2023/05/10 06:04:59;;;;;;;24.25;15.38;;;;;;;14.63;70.40;100915.00;5055021;28;20052;-63
2023/05/10 06:07:27;;;;;;;23.20;15.82;;;;;;;14.64;70.42;100913.94;5043175;28;20052;-59
2023/05/10 06:09:55;;;;;;;18.40;14.00;;;;;;;14.64;70.49;100921.22;5043587;28;20573;-60
2023/05/10 06:12:23;;;;;;;19.38;13.75;;;;;;;14.63;70.36;100919.59;5055277;28;20305;-62
2023/05/10 06:14:51;;;;;;;20.63;13.82;;;;;;;14.64;70.75;100924.75;5056840;28;20056;-61
2023/05/10 06:17:21;;;;;;;18.48;12.82;;;;;;;14.65;70.25;100925.56;5055940;28;20107;-62
2023/05/10 06:19:49;;;;;;;21.23;14.07;;;;;;;14.67;70.66;100928.03;5055531;28;20065;-60
2023/05/10 06:22:17;;;;;;;19.80;13.00;;;;;;;14.66;70.21;100935.31;5047447;28;20080;-61
2023/05/10 06:24:45;;;;;;;25.27;14.95;;;;;;;14.66;70.50;100932.63;5042711;28;20049;-60
2023/05/10 06:27:13;;;;;;;21.15;13.98;;;;;;;14.66;70.40;100940.72;5049121;28;20041;-60
2023/05/10 06:29:41;;;;;;;20.75;12.45;;;;;;;14.68;70.34;100948.59;5040872;28;20065;-62
2023/05/10 06:32:09;;;;;;;18.13;13.23;;;;;;;14.67;70.40;100946.97;5037961;28;20053;-61
2023/05/10 06:34:38;;;;;;;18.63;13.95;;;;;;;14.66;70.55;100948.84;5046854;28;20041;-61
2023/05/10 06:37:06;;;;;;;18.80;12.90;;;;;;;14.65;70.61;100939.91;5053573;28;20049;-63
2023/05/10 06:39:34;;;;;;;17.73;12.43;;;;;;;14.65;70.55;100942.63;5054987;28;20044;-64
2023/05/10 06:42:02;;;;;;;18.45;12.45;;;;;;;14.66;70.81;100940.72;5058750;28;20181;-65
2023/05/10 06:44:30;;;;;;;20.98;12.48;;;;;;;14.66;70.57;100948.84;5057686;28;20044;-64
2023/05/10 06:46:58;;;;;;;16.55;12.48;;;;;;;14.67;70.39;100955.09;5055642;28;20126;-64
2023/05/10 06:49:26;;;;;;;17.02;12.10;;;;;;;14.67;70.46;100950.50;5052907;28;20040;-63
2023/05/10 06:51:56;;;;;;;17.67;12.63;;;;;;;14.67;70.52;100955.91;5047544;28;20049;-64
2023/05/10 06:54:24;;;;;;;18.42;12.57;;;;;;;14.67;70.66;100953.19;5040977;28;20045;-60
2023/05/10 06:56:51;;;;;;;19.15;12.38;;;;;;;14.67;70.70;100955.09;5062088;28;20357;-60
2023/05/10 06:59:21;;;;;;;17.83;11.63;;;;;;;14.67;70.43;100961.31;5047834;28;20053;-60
2023/05/10 07:01:49;;;;;;;20.13;13.35;;;;;;;14.68;71.10;100964.84;5061082;28;20592;-62
2023/05/10 07:04:17;;;;;;;19.27;13.52;;;;;;;14.68;70.65;100962.94;5046205;28;20097;-61
2023/05/10 07:06:46;;;;;;;15.70;11.45;;;;;;;14.68;70.71;100954.84;5051634;28;20068;-61
2023/05/10 07:09:15;;;;;;;18.17;12.85;;;;;;;14.67;70.62;100964.00;5053106;28;20179;-59
2023/05/10 07:11:43;;;;;;;22.38;13.18;;;;;;;14.66;70.70;100965.09;5041019;28;20064;-61
2023/05/10 07:14:11;;;;;;;20.55;13.38;;;;;;;14.64;70.82;100961.81;5052519;28;20049;-61
2023/05/10 07:16:39;;;;;;;17.05;12.07;;;;;;;14.67;70.71;100971.31;5053488;28;20455;-61
2023/05/10 07:19:07;;;;;;;16.98;11.80;;;;;;;14.65;70.83;100977.78;5042879;28;20113;-60
2023/05/10 07:21:35;;;;;;;19.05;11.77;;;;;;;14.67;70.82;100980.25;5039458;28;20045;-63
2023/05/10 07:24:03;;;;;;;23.50;15.40;;;;;;;14.54;71.99;100981.38;5046364;28;20053;-61
2023/05/10 07:26:33;;;;;;;24.08;15.02;;;;;;;14.47;72.48;100985.31;5047061;28;20132;-61
2023/05/10 07:29:01;;;;;;;25.13;14.63;;;;;;;14.48;72.52;100992.38;5044478;28;20283;-59
2023/05/10 07:31:28;;;;;;;21.55;13.02;;;;;;;14.53;72.27;100984.34;5045971;28;20053;-63
2023/05/10 07:33:56;;;;;;;23.05;13.38;;;;;;;14.56;71.83;100991.97;5052262;28;20126;-61
2023/05/10 07:36:24;;;;;;;17.45;12.82;;;;;;;14.59;71.82;100988.75;5057642;28;20139;-62
2023/05/10 07:38:52;;;;;;;23.30;11.68;;;;;;;14.61;71.55;100989.34;5054972;28;20353;-62
2023/05/10 07:41:20;;;;;;;20.45;11.45;;;;;;;14.62;71.22;100990.97;5050695;28;20058;-60
2023/05/10 07:43:50;;;;;;;20.45;10.48;;;;;;;14.60;71.11;100990.41;5048253;28;20045;-61
2023/05/10 07:46:19;;;;;;;17.77;10.95;;;;;;;14.61;71.27;100994.75;5055736;28;20053;-61
2023/05/10 07:48:47;;;;;;;15.30;10.27;;;;;;;14.59;70.92;100994.19;5052070;28;20044;-62
2023/05/10 07:51:15;;;;;;;16.92;9.52;;;;;;;14.61;70.84;101003.69;5040568;28;20136;-57
2023/05/10 07:53:43;;;;;;;13.23;9.45;;;;;;;14.61;70.83;101006.38;5055668;28;20049;-59
2023/05/10 07:56:26;;;;;;;16.85;8.20;;;;;;;14.62;70.99;101010.75;5054003;28;20087;-61
2023/05/10 07:58:57;;;;;;;13.20;7.25;;;;;;;14.61;70.84;101011.81;5042230;28;20063;-62
2023/05/10 08:01:25;;;;;;;12.13;7.47;;;;;;;14.62;70.62;101015.31;5050008;28;20056;-60
2023/05/10 08:03:53;;;;;;;12.90;7.68;;;;;;;14.62;70.60;101016.16;5054870;28;20053;-62
2023/05/10 08:06:21;;;;;;;14.73;6.97;;;;;;;14.65;70.54;101018.38;5054616;28;20112;-62
2023/05/10 08:08:50;;;;;;;12.25;7.72;;;;;;;14.80;70.12;101025.09;5052303;28;20109;-60
2023/05/10 08:11:18;;;;;;;11.63;6.70;;;;;;;14.96;69.59;101027.81;5043327;28;20067;-62
2023/05/10 08:13:46;;;;;;;9.63;6.45;;;;;;;15.09;68.71;101017.72;5046067;28;20051;-61
2023/05/10 08:16:15;;;;;;;13.88;6.45;;;;;;;15.34;68.04;101028.94;5050979;28;20057;-62
2023/05/10 08:18:46;;;;;;;10.70;6.70;;;;;;;15.56;67.46;101034.38;5052616;28;20061;-61
2023/05/10 08:21:15;;;;;;;9.57;6.47;;;;;;;15.66;66.96;101042.66;5055805;28;20049;-62
2023/05/10 08:23:43;;;;;;;10.68;6.18;;;;;;;15.66;66.89;101039.13;5048764;28;20057;-62
2023/05/10 08:26:12;;;;;;;11.55;5.10;;;;;;;15.56;66.95;101056.88;5056240;28;20347;-62
2023/05/10 08:28:40;;;;;;;14.75;6.50;;;;;;;15.42;68.21;101050.16;5054015;28;20084;-61
2023/05/10 08:31:07;;;;;;;10.65;5.47;;;;;;;15.35;68.28;101049.53;5047499;28;20057;-61
2023/05/10 08:33:37;;;;;;;12.18;5.65;;;;;;;15.28;68.40;101052.41;5061071;28;20125;-63
2023/05/10 08:36:05;;;;;;;10.32;5.65;;;;;;;15.22;68.55;101053.38;5044725;28;20114;-62
2023/05/10 08:38:33;;;;;;;14.63;6.35;;;;;;;15.08;68.57;101040.44;5049345;28;20076;-63
2023/05/10 08:41:03;;;;;;;8.30;5.75;;;;;;;15.12;68.75;101047.00;5052846;28;20147;-63
2023/05/10 08:43:32;;;;;;;14.05;4.82;;;;;;;15.07;68.70;101050.44;5049430;28;20125;-63
2023/05/10 08:46:02;;;;;;;9.27;4.63;;;;;;;15.05;69.00;101052.56;5048499;28;20045;-62
2023/05/10 08:48:31;;;;;;;8.35;4.65;;;;;;;14.94;68.84;101042.66;5053493;28;20049;-63
2023/05/10 08:51:01;;;;;;;10.00;4.28;;;;;;;14.95;68.75;101041.59;5056024;28;20618;-62
2023/05/10 08:53:31;;;;;;;9.02;4.03;;;;;;;15.00;68.96;101051.69;5052002;28;20051;-63
2023/05/10 08:56:00;;;;;;;9.82;4.15;;;;;;;14.98;68.91;101060.88;5049899;28;20049;-63
2023/05/10 08:58:27;;;;;;;8.90;3.90;;;;;;;14.89;68.95;101047.97;5040798;28;20608;-63
2023/05/10 09:00:55;;;;;;;9.57;4.57;;;;;;;14.96;69.17;101060.28;5051656;28;20426;-59
2023/05/10 09:03:23;;;;;;;7.72;3.80;;;;;;;14.96;69.10;101065.69;5049531;28;20049;-63
2023/05/10 09:05:51;;;;;;;4.80;3.17;;;;;;;14.96;69.20;101059.47;5049332;28;20268;-63
2023/05/10 09:08:21;;;;;;;7.47;4.32;;;;;;;14.95;69.15;101058.66;5054827;28;20045;-64
2023/05/10 09:10:49;;;;;;;11.40;3.38;;;;;;;14.94;69.19;101065.13;5059567;28;20155;-61
2023/05/10 09:13:19;;;;;;;4.88;3.10;;;;;;;14.87;69.10;101055.53;5057202;28;20045;-55
2023/05/10 09:15:48;;;;;;;4.93;3.33;;;;;;;14.96;69.48;101062.16;5061095;28;20041;-62
2023/05/10 09:18:16;;;;;;;6.10;3.45;;;;;;;14.94;69.43;101070.53;5061352;28;20061;-63
2023/05/10 09:20:44;;;;;;;5.63;3.20;;;;;;;14.94;69.27;101067.81;5060510;28;20063;-62
2023/05/10 09:23:11;;;;;;;5.47;3.35;;;;;;;14.87;69.48;101060.94;5058595;28;20084;-62
2023/05/10 09:25:42;;;;;;;4.20;2.75;;;;;;;14.95;69.38;101068.66;5057534;28;20099;-62
2023/05/10 09:28:10;;;;;;;10.80;4.20;;;;;;;14.94;69.58;101069.72;5062364;28;20049;-62
2023/05/10 09:30:39;;;;;;;8.93;3.42;;;;;;;14.95;69.43;101076.78;5058965;28;20057;-62
2023/05/10 09:33:07;;;;;;;5.20;3.05;;;;;;;14.95;69.45;101072.19;5059248;28;20182;-62
2023/05/10 09:35:35;;;;;;;4.82;2.78;;;;;;;14.94;69.43;101075.94;5052637;28;20048;-62
2023/05/10 09:38:05;;;;;;;8.13;3.05;;;;;;;14.95;69.66;101080.28;5058172;28;20465;-64
2023/05/10 09:40:33;;;;;;;5.47;2.92;;;;;;;14.97;69.71;101077.34;5042335;28;20639;-61
2023/05/10 09:43:03;;;;;;;9.20;3.20;;;;;;;14.97;69.46;101071.94;5046957;28;20042;-62
2023/05/10 09:45:33;;;;;;;7.18;3.47;;;;;;;14.98;69.58;101077.09;5053138;28;20423;-62
2023/05/10 09:48:04;;;;;;;6.13;3.10;;;;;;;14.98;69.65;101082.50;5050173;28;20057;-62
2023/05/10 09:50:33;;;;;;;6.65;3.75;;;;;;;15.00;69.71;101079.56;5054418;28;20053;-64
2023/05/10 09:53:03;;;;;;;6.43;3.05;;;;;;;15.03;69.74;101086.38;5042733;28;20048;-65
2023/05/10 09:55:40;;;;;;;5.85;2.67;;;;;;;14.98;69.65;101078.97;5053747;28;20076;-62
2023/05/10 09:58:10;;;;;;;7.32;3.30;;;;;;;15.04;69.73;101083.41;5047897;28;20050;-63
2023/05/10 10:00:39;;;;;;;5.85;3.40;;;;;;;15.06;69.77;101084.00;5060780;28;20113;-63
2023/05/10 10:03:13;;;;;;;4.88;3.00;;;;;;;15.06;69.44;101085.88;5046675;28;20075;-65
2023/05/10 10:05:42;;;;;;;6.55;3.03;;;;;;;15.06;69.71;101089.41;5049838;28;20048;-63
2023/05/10 10:08:10;;;;;;;5.93;4.18;;;;;;;15.07;70.12;101090.22;5052635;28;20064;-63
2023/05/10 10:10:39;;;;;;;7.57;4.65;;;;;;;15.07;70.31;101082.09;5056750;28;20576;-64
2023/05/10 10:13:09;;;;;;;7.72;4.72;;;;;;;15.06;69.95;101084.00;5043918;28;20049;-64
2023/05/10 10:15:38;;;;;;;7.97;3.95;;;;;;;15.08;69.57;101086.44;5041988;28;20049;-60
2023/05/10 10:18:07;;;;;;;6.50;3.60;;;;;;;15.09;69.69;101082.69;5045342;28;20071;-58
2023/05/10 10:20:38;;;;;;;5.50;3.42;;;;;;;15.09;69.80;101086.22;5044623;28;20051;-62
2023/05/10 10:23:05;;;;;;;7.10;4.18;;;;;;;15.09;69.63;101077.25;5044546;28;20155;-60
2023/05/10 10:25:34;;;;;;;5.93;3.90;;;;;;;15.09;69.18;101078.09;5048014;28;20402;-59
2023/05/10 10:28:18;;;;;;;5.90;3.80;;;;;;;15.10;69.02;101082.44;5049289;28;20052;-60
2023/05/10 10:30:49;;;;;;;5.05;3.00;;;;;;;15.10;68.57;101082.44;5048384;28;20119;-60
2023/05/10 10:33:52;;;;;;;5.40;3.42;;;;;;;15.11;68.46;101081.38;5044553;28;20049;-61
2023/05/10 10:36:22;;;;;;;7.00;3.50;;;;;;;15.13;68.54;101081.13;4986825;28;20216;-59
2023/05/10 10:38:59;;;;;;;5.57;3.20;;;;;;;15.13;68.68;101081.94;4991762;28;20259;-61
2023/05/10 10:41:33;;;;;;;4.22;2.88;;;;;;;15.14;68.69;101085.47;4990513;28;20054;-59
2023/05/10 10:44:27;;;;;;;4.30;2.90;;;;;;;15.15;69.09;101087.09;4990946;28;20061;-57
2023/05/10 10:47:05;;;;;;;6.57;4.65;;;;;;;15.15;69.04;101081.69;4987005;28;20240;-64
2023/05/10 10:49:34;;;;;;;7.60;5.22;;;;;;;15.17;68.93;101077.69;4993203;28;20081;-62
2023/05/10 10:52:26;;;;;;;6.70;4.85;;;;;;;15.17;68.91;101088.50;4991414;28;20070;-61
2023/05/10 10:55:00;;;;;;;7.03;4.93;;;;;;;15.20;69.24;101090.72;4984344;28;20050;-61
2023/05/10 10:57:29;;;;;;;9.75;5.35;;;;;;;15.17;69.11;101091.22;4994429;28;20054;-58
2023/05/10 11:00:21;;;;;;;9.23;6.40;;;;;;;15.21;69.38;101080.72;4994012;28;20138;-58
2023/05/10 11:02:52;;;;;;;8.20;5.55;;;;;;;15.21;69.21;101095.06;4993173;28;20082;-62
2023/05/10 11:05:34;;;;;;;6.60;5.20;;;;;;;15.22;69.38;101094.00;4995224;28;20082;-58
2023/05/10 11:08:09;;;;;;;7.70;5.65;;;;;;;15.24;69.15;101091.06;4993542;28;20054;-61
2023/05/10 11:10:37;;;;;;;8.20;5.70;;;;;;;15.24;69.22;101094.56;4994726;28;20133;-62
2023/05/10 11:13:07;;;;;;;10.05;6.93;;;;;;;15.23;69.36;101084.81;5039875;28;20057;-62
2023/05/10 11:15:38;;;;;;;8.73;6.25;;;;;;;15.24;69.28;101093.75;5048935;28;20061;-63
2023/05/10 11:18:20;;;;;;;11.30;6.07;;;;;;;15.24;69.27;101094.56;5045238;28;20131;-60
2023/05/10 11:20:51;;;;;;;10.32;5.93;;;;;;;15.26;69.52;101087.03;5049601;28;20049;-64
2023/05/10 11:23:20;;;;;;;9.10;5.80;;;;;;;15.26;69.20;101095.16;5041359;28;20049;-62
2023/05/10 11:25:50;;;;;;;9.35;5.40;;;;;;;15.27;69.33;101095.97;5051846;28;20045;-60
2023/05/10 11:28:19;;;;;;;11.73;7.22;;;;;;;15.19;69.57;101083.66;5059625;28;20083;-59